createdAt,value
2023-02-18T00:00:45.361Z,51.97
2023-02-18T00:01:47.175Z,51.99
2023-02-18T00:02:51.521Z,51.97
2023-02-18T00:03:54.473Z,51.95
2023-02-18T00:04:56.347Z,51.96
2023-02-18T00:05:58.225Z,52.00
2023-02-18T00:07:00.362Z,52.00
2023-02-18T00:08:02.195Z,52.00
2023-02-18T00:09:05.436Z,52.06
2023-02-18T00:10:10.293Z,52.11
2023-02-18T00:11:12.632Z,52.18
2023-02-18T00:12:14.472Z,52.23
2023-02-18T00:13:16.284Z,52.40
2023-02-18T00:14:18.666Z,52.49
2023-02-18T00:15:20.605Z,52.61
2023-02-18T00:16:23.746Z,52.74
2023-02-18T00:17:25.673Z,52.86
2023-02-18T00:18:27.488Z,52.96
2023-02-18T00:19:29.351Z,53.12
2023-02-18T00:20:33.541Z,53.26
2023-02-18T00:21:36.538Z,53.41
2023-02-18T00:22:38.397Z,53.47
2023-02-18T00:23:41.138Z,53.56
2023-02-18T00:24:43.852Z,53.66
2023-02-18T00:25:45.636Z,53.73
2023-02-18T00:26:50.838Z,53.76
2023-02-18T00:27:52.616Z,53.78
2023-02-18T00:28:54.647Z,53.79
2023-02-18T00:29:56.498Z,53.80
2023-02-18T00:30:58.381Z,53.82
2023-02-18T00:32:00.531Z,53.77
2023-02-18T00:33:02.401Z,53.73
2023-02-18T00:34:05.454Z,53.69
2023-02-18T00:35:07.650Z,53.67
2023-02-18T00:36:11.963Z,53.59
2023-02-18T00:37:13.886Z,53.59
2023-02-18T00:38:16.638Z,53.61
2023-02-18T00:39:18.578Z,53.68
2023-02-18T00:40:20.667Z,53.75
2023-02-18T00:41:24.214Z,53.80
2023-02-18T00:42:26.151Z,53.83
2023-02-18T00:43:28.419Z,53.83
2023-02-18T00:44:30.259Z,53.87
2023-02-18T00:45:32.070Z,53.87
2023-02-18T00:46:34.426Z,53.85
2023-02-18T00:47:36.234Z,53.80
2023-02-18T00:48:40.705Z,53.74
2023-02-18T00:49:42.942Z,53.72
2023-02-18T00:50:45.233Z,53.71
2023-02-18T00:51:47.172Z,53.66
2023-02-18T00:52:49.326Z,53.64
2023-02-18T00:53:51.696Z,53.60
2023-02-18T00:54:53.494Z,53.58
2023-02-18T00:55:56.009Z,53.62
2023-02-18T00:56:57.886Z,53.72
2023-02-18T00:57:59.707Z,53.74
2023-02-18T00:59:01.537Z,53.77
2023-02-18T01:00:05.869Z,53.84
2023-02-18T01:01:09.111Z,53.88
2023-02-18T01:02:11.025Z,53.92
2023-02-18T01:03:13.080Z,53.98
2023-02-18T01:04:15.058Z,54.04
2023-02-18T01:05:16.917Z,54.22
2023-02-18T01:06:18.964Z,54.33
2023-02-18T01:07:21.260Z,54.46
2023-02-18T01:08:23.126Z,54.58
2023-02-18T01:09:25.866Z,54.66
2023-02-18T01:10:27.731Z,54.70
2023-02-18T01:11:29.608Z,54.72
2023-02-18T01:12:31.413Z,54.75
2023-02-18T01:13:33.397Z,54.71
2023-02-18T01:14:35.232Z,54.75
2023-02-18T01:15:37.071Z,54.76
2023-02-18T01:16:38.986Z,54.75
2023-02-18T01:17:41.073Z,54.73
2023-02-18T01:18:43.388Z,54.74
2023-02-18T01:19:45.500Z,54.76
2023-02-18T01:20:48.176Z,54.77
2023-02-18T01:21:49.979Z,54.78
2023-02-18T01:22:51.775Z,54.81
2023-02-18T01:23:53.703Z,54.78
2023-02-18T01:24:55.486Z,54.74
2023-02-18T01:25:58.410Z,54.73
2023-02-18T01:27:00.695Z,54.73
2023-02-18T01:28:02.886Z,54.70
2023-02-18T01:29:04.701Z,54.75
2023-02-18T01:30:08.991Z,54.76
2023-02-18T01:31:12.875Z,54.71
2023-02-18T01:32:14.810Z,54.74
2023-02-18T01:33:16.677Z,54.76
2023-02-18T01:34:18.465Z,54.79
2023-02-18T01:35:20.840Z,54.83
2023-02-18T01:36:22.614Z,54.84
2023-02-18T01:37:24.727Z,54.87
2023-02-18T01:38:26.607Z,54.93
2023-02-18T01:39:28.524Z,54.96
2023-02-18T01:40:30.635Z,54.98
2023-02-18T01:41:32.765Z,54.96
2023-02-18T01:42:34.789Z,54.98
2023-02-18T01:43:36.912Z,54.98
2023-02-18T01:44:38.770Z,55.02
2023-02-18T01:45:43.496Z,55.05
2023-02-18T01:46:45.392Z,55.05
2023-02-18T01:47:47.351Z,55.11
2023-02-18T01:48:58.931Z,55.11
2023-02-18T01:50:01.396Z,55.14
2023-02-18T01:51:10.316Z,55.19
2023-02-18T01:52:16.429Z,55.22
2023-02-18T01:53:22.350Z,55.28
2023-02-18T01:54:34.149Z,55.35
2023-02-18T01:55:37.217Z,55.38
2023-02-18T01:56:49.063Z,55.40
2023-02-18T01:57:51.025Z,55.48
2023-02-18T01:58:55.673Z,55.48
2023-02-18T02:00:06.581Z,55.50
2023-02-18T02:01:09.614Z,55.52
2023-02-18T02:02:14.771Z,55.60
2023-02-18T02:03:16.651Z,55.55
2023-02-18T02:04:19.675Z,55.58
2023-02-18T02:05:22.008Z,55.52
2023-02-18T02:06:24.500Z,55.54
2023-02-18T02:07:27.473Z,55.50
2023-02-18T02:08:30.366Z,55.49
2023-02-18T02:09:33.892Z,55.56
2023-02-18T02:10:55.848Z,55.57
2023-02-18T02:12:20.350Z,55.59
2023-02-18T02:13:46.397Z,55.60
2023-02-18T02:15:09.879Z,55.54
2023-02-18T02:16:21.469Z,55.60
2023-02-18T02:17:52.792Z,55.61
2023-02-18T02:19:04.536Z,55.52
2023-02-18T02:20:32.165Z,55.49
2023-02-18T02:21:42.982Z,55.58
2023-02-18T02:23:34.692Z,55.52
2023-02-18T02:25:01.501Z,55.57
2023-02-18T02:26:09.405Z,55.54
2023-02-18T02:27:17.543Z,55.61
2023-02-18T02:28:40.201Z,55.63
2023-02-18T02:30:01.984Z,55.64
2023-02-18T02:31:52.263Z,55.70
2023-02-18T02:33:15.017Z,55.74
2023-02-18T02:34:37.761Z,55.74
2023-02-18T02:36:02.732Z,55.74
2023-02-18T02:37:26.183Z,55.68
2023-02-18T02:38:39.267Z,55.74
2023-02-18T02:39:48.539Z,55.78
2023-02-18T02:41:10.602Z,55.84
2023-02-18T02:42:53.877Z,55.88
2023-02-18T02:44:10.565Z,55.94
2023-02-18T02:45:42.900Z,55.97
2023-02-18T02:46:47.819Z,56.07
2023-02-18T02:48:07.379Z,56.12
2023-02-18T02:49:20.356Z,56.11
2023-02-18T02:50:44.407Z,56.12
2023-02-18T02:51:58.035Z,56.10
2023-02-18T02:53:04.604Z,56.03
2023-02-18T02:54:27.106Z,55.96
2023-02-18T02:55:29.037Z,55.95
2023-02-18T02:56:30.954Z,55.93
2023-02-18T02:57:32.721Z,55.89
2023-02-18T02:58:34.801Z,55.90
2023-02-18T02:59:41.903Z,55.97
2023-02-18T03:00:55.541Z,55.97
2023-02-18T03:02:23.727Z,55.96
2023-02-18T03:03:32.156Z,55.94
2023-02-18T03:05:02.444Z,55.92
2023-02-18T03:06:23.110Z,55.89
2023-02-18T03:08:00.654Z,55.87
2023-02-18T03:09:12.633Z,55.92
2023-02-18T03:10:30.629Z,55.84
2023-02-18T03:11:42.657Z,55.79
2023-02-18T03:13:04.003Z,55.70
2023-02-18T03:14:09.629Z,55.67
2023-02-18T03:15:23.328Z,55.68
2023-02-18T03:16:47.306Z,55.69
2023-02-18T03:18:03.079Z,55.67
2023-02-18T03:19:11.793Z,55.63
2023-02-18T03:20:20.624Z,55.58
2023-02-18T03:21:28.117Z,55.51
2023-02-18T03:22:33.787Z,55.52
2023-02-18T03:23:41.721Z,55.54
2023-02-18T03:24:46.848Z,55.57
2023-02-18T03:25:50.119Z,55.50
2023-02-18T03:26:56.817Z,55.45
2023-02-18T03:28:12.702Z,55.45
2023-02-18T03:29:17.628Z,55.46
2023-02-18T03:30:26.345Z,55.44
2023-02-18T03:31:30.411Z,55.37
2023-02-18T03:32:34.684Z,55.36
2023-02-18T03:33:54.748Z,55.31
2023-02-18T03:35:02.496Z,55.38
2023-02-18T03:36:04.788Z,55.35
2023-02-18T03:37:09.110Z,55.34
2023-02-18T03:38:23.407Z,55.27
2023-02-18T03:39:27.949Z,55.19
2023-02-18T03:40:31.266Z,55.09
2023-02-18T03:41:34.125Z,55.02
2023-02-18T03:42:36.022Z,54.98
2023-02-18T03:43:37.819Z,54.96
2023-02-18T03:44:39.625Z,54.89
2023-02-18T03:45:41.434Z,54.87
2023-02-18T03:46:44.573Z,54.93
2023-02-18T03:47:46.421Z,54.92
2023-02-18T03:48:48.517Z,54.84
2023-02-18T03:49:50.301Z,54.77
2023-02-18T03:50:52.080Z,54.78
2023-02-18T03:51:54.008Z,54.79
2023-02-18T03:52:55.827Z,54.80
2023-02-18T03:53:57.574Z,54.87
2023-02-18T03:54:59.372Z,54.83
2023-02-18T03:56:01.205Z,54.91
2023-02-18T03:57:03.504Z,54.96
2023-02-18T03:58:05.333Z,54.96
2023-02-18T03:59:07.204Z,55.03
2023-02-18T04:00:10.673Z,55.06
2023-02-18T04:01:14.695Z,55.15
2023-02-18T04:02:16.757Z,55.16
2023-02-18T04:03:18.611Z,55.18
2023-02-18T04:04:20.669Z,55.18
2023-02-18T04:05:22.544Z,55.24
2023-02-18T04:06:24.757Z,55.22
2023-02-18T04:07:26.613Z,55.27
2023-02-18T04:08:29.656Z,55.24
2023-02-18T04:09:31.529Z,55.36
2023-02-18T04:10:33.557Z,55.36
2023-02-18T04:11:39.874Z,55.39
2023-02-18T04:12:41.704Z,55.49
2023-02-18T04:13:43.499Z,55.45
2023-02-18T04:14:45.696Z,55.50
2023-02-18T04:15:49.797Z,55.54
2023-02-18T04:16:51.703Z,55.55
2023-02-18T04:17:53.533Z,55.56
2023-02-18T04:18:56.117Z,55.59
2023-02-18T04:19:57.861Z,55.60
2023-02-18T04:20:59.684Z,55.65
2023-02-18T04:22:01.794Z,55.68
2023-02-18T04:23:04.632Z,55.72
2023-02-18T04:24:06.436Z,55.77
2023-02-18T04:25:08.721Z,55.73
2023-02-18T04:26:10.773Z,55.76
2023-02-18T04:27:12.742Z,55.77
2023-02-18T04:28:16.755Z,55.79
2023-02-18T04:29:18.955Z,55.82
2023-02-18T04:30:21.059Z,55.89
2023-02-18T04:31:22.953Z,55.90
2023-02-18T04:32:24.865Z,55.95
2023-02-18T04:33:26.641Z,55.92
2023-02-18T04:34:28.452Z,55.99
2023-02-18T04:35:30.288Z,56.03
2023-02-18T04:36:32.179Z,56.03
2023-02-18T04:37:34.003Z,56.07
2023-02-18T04:38:36.194Z,56.09
2023-02-18T04:39:38.000Z,56.08
2023-02-18T04:40:39.792Z,56.13
2023-02-18T04:41:41.576Z,56.10
2023-02-18T04:42:43.428Z,56.10
2023-02-18T04:43:45.266Z,56.06
2023-02-18T04:44:47.567Z,56.11
2023-02-18T04:45:50.074Z,56.20
2023-02-18T04:46:52.050Z,56.19
2023-02-18T04:47:54.255Z,56.20
2023-02-18T04:48:56.119Z,56.16
2023-02-18T04:49:58.176Z,56.22
2023-02-18T04:51:01.190Z,56.21
2023-02-18T04:52:03.529Z,56.27
2023-02-18T04:53:05.285Z,56.31
2023-02-18T04:54:07.118Z,56.34
2023-02-18T04:55:09.052Z,56.34
2023-02-18T04:56:10.940Z,56.45
2023-02-18T04:57:13.048Z,56.45
2023-02-18T04:58:14.966Z,56.49
2023-02-18T04:59:17.428Z,56.48
2023-02-18T05:00:20.359Z,56.52
2023-02-18T05:01:22.300Z,56.56
2023-02-18T05:02:24.145Z,56.55
2023-02-18T05:03:26.000Z,56.49
2023-02-18T05:04:27.882Z,56.48
2023-02-18T05:05:29.774Z,56.43
2023-02-18T05:06:31.674Z,56.54
2023-02-18T05:07:34.518Z,56.56
2023-02-18T05:08:37.660Z,56.58
2023-02-18T05:09:39.448Z,56.66
2023-02-18T05:10:41.391Z,56.57
2023-02-18T05:11:43.400Z,56.60
2023-02-18T05:12:45.156Z,56.60
2023-02-18T05:13:47.033Z,56.62
2023-02-18T05:14:48.878Z,56.83
2023-02-18T05:15:50.953Z,56.92
2023-02-18T05:16:53.312Z,56.86
2023-02-18T05:17:55.290Z,56.86
2023-02-18T05:18:57.486Z,56.83
2023-02-18T05:19:59.438Z,56.86
2023-02-18T05:21:01.329Z,56.86
2023-02-18T05:22:03.293Z,56.79
2023-02-18T05:23:05.068Z,56.71
2023-02-18T05:24:07.052Z,56.69
2023-02-18T05:25:09.112Z,56.64
2023-02-18T05:26:11.212Z,56.64
2023-02-18T05:27:13.101Z,56.57
2023-02-18T05:28:14.941Z,56.59
2023-02-18T05:29:16.833Z,56.58
2023-02-18T05:30:19.000Z,56.62
2023-02-18T05:31:20.919Z,56.64
2023-02-18T05:32:23.897Z,56.66
2023-02-18T05:33:25.685Z,56.59
2023-02-18T05:34:27.565Z,56.64
2023-02-18T05:35:29.313Z,56.73
2023-02-18T05:36:31.717Z,56.84
2023-02-18T05:37:33.548Z,56.93
2023-02-18T05:38:36.816Z,57.05
2023-02-18T05:39:38.672Z,57.20
2023-02-18T05:40:40.734Z,57.33
2023-02-18T05:41:43.050Z,57.28
2023-02-18T05:42:44.853Z,57.19
2023-02-18T05:44:04.964Z,57.31
2023-02-18T05:45:07.395Z,57.44
2023-02-18T05:46:09.597Z,57.58
2023-02-18T05:47:13.042Z,57.65
2023-02-18T05:48:14.991Z,57.76
2023-02-18T05:49:16.876Z,57.80
2023-02-18T05:50:19.014Z,57.91
2023-02-18T05:51:20.850Z,58.03
2023-02-18T05:52:22.712Z,58.41
2023-02-18T05:53:24.580Z,58.73
2023-02-18T05:54:26.653Z,59.00
2023-02-18T05:55:28.630Z,59.35
2023-02-18T05:56:30.477Z,59.76
2023-02-18T05:57:32.339Z,59.88
2023-02-18T05:58:34.697Z,60.13
2023-02-18T05:59:36.641Z,60.26
2023-02-18T06:00:38.439Z,60.42
2023-02-18T06:01:40.806Z,60.53
2023-02-18T06:02:43.160Z,60.63
2023-02-18T06:03:45.052Z,60.81
2023-02-18T06:04:46.994Z,60.92
2023-02-18T06:05:52.086Z,61.19
2023-02-18T06:06:54.760Z,61.28
2023-02-18T06:07:56.883Z,61.39
2023-02-18T06:08:58.795Z,61.65
2023-02-18T06:10:00.873Z,61.68
2023-02-18T06:11:03.212Z,61.49
2023-02-18T06:12:05.233Z,61.34
2023-02-18T06:13:07.073Z,61.16
2023-02-18T06:14:09.212Z,60.87
2023-02-18T06:15:10.954Z,60.75
2023-02-18T06:16:13.213Z,60.71
2023-02-18T06:17:15.728Z,60.35
2023-02-18T06:18:18.203Z,59.82
2023-02-18T06:19:20.273Z,59.57
2023-02-18T06:20:22.062Z,59.26
2023-02-18T06:21:24.252Z,59.12
2023-02-18T06:22:26.057Z,58.56
2023-02-18T06:23:27.968Z,58.20
2023-02-18T06:24:29.845Z,58.17
2023-02-18T06:25:31.731Z,57.74
2023-02-18T06:26:34.248Z,57.62
2023-02-18T06:27:36.106Z,57.55
2023-02-18T06:28:39.169Z,57.67
2023-02-18T06:29:40.922Z,57.60
2023-02-18T06:30:43.068Z,57.62
2023-02-18T06:31:45.034Z,57.60
2023-02-18T06:32:46.925Z,57.56
2023-02-18T06:33:48.819Z,57.60
2023-02-18T06:34:50.581Z,57.68
2023-02-18T06:35:54.737Z,57.70
2023-02-18T06:36:56.649Z,57.76
2023-02-18T06:37:58.454Z,57.85
2023-02-18T06:39:03.611Z,57.91
2023-02-18T06:40:06.556Z,57.99
2023-02-18T06:41:11.826Z,58.03
2023-02-18T06:42:13.621Z,58.11
2023-02-18T06:43:15.466Z,58.19
2023-02-18T06:44:17.456Z,58.38
2023-02-18T06:45:19.619Z,58.57
2023-02-18T06:46:21.955Z,58.73
2023-02-18T06:47:23.885Z,58.87
2023-02-18T06:48:25.687Z,58.95
2023-02-18T06:49:27.555Z,59.07
2023-02-18T06:50:29.400Z,59.13
2023-02-18T06:51:31.208Z,59.37
2023-02-18T06:52:34.555Z,59.40
2023-02-18T06:53:36.378Z,59.48
2023-02-18T06:54:38.208Z,59.60
2023-02-18T06:55:41.841Z,59.70
2023-02-18T06:56:43.756Z,59.82
2023-02-18T06:57:45.821Z,59.85
2023-02-18T06:58:47.632Z,60.03
2023-02-18T06:59:49.536Z,60.14
2023-02-18T07:00:51.673Z,60.25
2023-02-18T07:01:53.534Z,60.40
2023-02-18T07:02:55.493Z,60.53
2023-02-18T07:03:57.376Z,60.67
2023-02-18T07:04:59.244Z,60.77
2023-02-18T07:06:01.263Z,60.93
2023-02-18T07:07:03.061Z,61.07
2023-02-18T07:08:05.064Z,61.26
2023-02-18T07:09:07.217Z,61.49
2023-02-18T07:10:09.526Z,61.72
2023-02-18T07:11:11.400Z,62.01
2023-02-18T07:12:13.236Z,62.25
2023-02-18T07:13:15.554Z,62.51
2023-02-18T07:14:17.413Z,63.03
2023-02-18T07:15:24.209Z,63.72
2023-02-18T07:16:26.343Z,64.65
2023-02-18T07:17:28.207Z,65.35
2023-02-18T07:18:30.621Z,66.08
2023-02-18T07:19:32.548Z,66.56
2023-02-18T07:20:34.656Z,66.83
2023-02-18T07:21:36.532Z,66.94
2023-02-18T07:22:38.368Z,67.10
2023-02-18T07:23:40.227Z,67.03
2023-02-18T07:24:42.155Z,66.99
2023-02-18T07:25:43.976Z,67.01
2023-02-18T07:26:45.850Z,66.95
2023-02-18T07:27:47.637Z,66.87
2023-02-18T07:28:49.520Z,66.77
2023-02-18T07:29:51.889Z,66.79
2023-02-18T07:30:53.780Z,66.66
2023-02-18T07:31:56.039Z,66.64
2023-02-18T07:32:58.499Z,66.59
2023-02-18T07:34:00.790Z,66.59
2023-02-18T07:35:03.994Z,66.29
2023-02-18T07:36:06.653Z,66.28
2023-02-18T07:37:12.509Z,66.06
2023-02-18T07:38:14.315Z,65.89
2023-02-18T07:39:20.667Z,65.73
2023-02-18T07:40:22.542Z,65.76
2023-02-18T07:41:24.368Z,65.63
2023-02-18T07:42:26.111Z,65.41
2023-02-18T07:43:27.981Z,65.23
2023-02-18T07:44:30.718Z,65.00
2023-02-18T07:45:32.609Z,64.89
2023-02-18T07:46:34.454Z,64.34
2023-02-18T07:47:36.497Z,63.92
2023-02-18T07:48:40.649Z,63.83
2023-02-18T07:49:42.631Z,63.84
2023-02-18T07:50:45.741Z,63.75
2023-02-18T07:51:48.914Z,63.42
2023-02-18T07:52:51.308Z,63.25
2023-02-18T07:53:53.240Z,63.17
2023-02-18T07:54:55.139Z,62.86
2023-02-18T07:56:00.209Z,62.70
2023-02-18T07:57:02.144Z,62.64
2023-02-18T07:58:03.938Z,62.55
2023-02-18T07:59:06.200Z,62.47
2023-02-18T08:00:08.901Z,62.42
2023-02-18T08:01:15.081Z,62.37
2023-02-18T08:02:19.622Z,62.38
2023-02-18T08:03:28.281Z,62.50
2023-02-18T08:04:30.191Z,62.55
2023-02-18T08:05:32.020Z,62.52
2023-02-18T08:06:40.053Z,62.38
2023-02-18T08:07:41.997Z,62.66
2023-02-18T08:08:44.036Z,62.46
2023-02-18T08:09:46.221Z,62.38
2023-02-18T08:10:49.242Z,62.25
2023-02-18T08:11:51.044Z,62.09
2023-02-18T08:12:52.884Z,62.21
2023-02-18T08:13:54.764Z,62.08
2023-02-18T08:14:56.590Z,61.86
2023-02-18T08:15:58.804Z,61.98
2023-02-18T08:17:00.798Z,61.93
2023-02-18T08:18:02.940Z,61.69
2023-02-18T08:19:04.983Z,61.76
2023-02-18T08:20:07.451Z,61.60
2023-02-18T08:21:10.344Z,61.58
2023-02-18T08:22:12.120Z,61.52
2023-02-18T08:23:14.825Z,61.31
2023-02-18T08:24:16.723Z,61.16
2023-02-18T08:25:29.452Z,61.10
2023-02-18T08:26:31.616Z,61.07
2023-02-18T08:27:33.485Z,60.77
2023-02-18T08:28:35.775Z,60.75
2023-02-18T08:29:37.649Z,60.84
2023-02-18T08:30:39.607Z,60.61
2023-02-18T08:31:43.792Z,60.20
2023-02-18T08:32:46.517Z,60.19
2023-02-18T08:33:49.343Z,60.19
2023-02-18T08:34:51.281Z,59.85
2023-02-18T08:35:54.736Z,59.63
2023-02-18T08:36:56.553Z,59.19
2023-02-18T08:37:58.713Z,58.75
2023-02-18T08:39:00.676Z,58.44
2023-02-18T08:40:03.294Z,58.56
2023-02-18T08:41:07.470Z,58.42
2023-02-18T08:42:09.781Z,58.48
2023-02-18T08:43:12.152Z,58.38
2023-02-18T08:44:14.271Z,58.13
2023-02-18T08:45:15.970Z,58.13
2023-02-18T08:46:25.225Z,58.09
2023-02-18T08:48:17.202Z,57.88
2023-02-18T08:48:59.056Z,57.63
2023-02-18T08:50:01.165Z,56.99
2023-02-18T08:51:18.361Z,56.67
2023-02-18T08:52:20.561Z,56.49
2023-02-18T08:53:22.674Z,56.23
2023-02-18T08:54:24.445Z,55.72
2023-02-18T08:55:26.947Z,55.93
2023-02-18T08:56:28.878Z,55.82
2023-02-18T08:57:30.940Z,55.68
2023-02-18T08:58:33.118Z,55.79
2023-02-18T08:59:35.008Z,55.78
2023-02-18T09:00:37.527Z,55.52
2023-02-18T09:01:39.359Z,55.49
2023-02-18T09:02:41.616Z,55.59
2023-02-18T09:03:43.448Z,55.45
2023-02-18T09:04:45.437Z,55.57
2023-02-18T09:05:47.184Z,55.58
2023-02-18T09:06:50.228Z,55.50
2023-02-18T09:07:52.079Z,55.17
2023-02-18T09:08:54.041Z,55.06
2023-02-18T09:09:55.897Z,54.90
2023-02-18T09:10:59.882Z,54.74
2023-02-18T09:12:01.908Z,54.72
2023-02-18T09:13:04.898Z,54.68
2023-02-18T09:14:06.786Z,54.76
2023-02-18T09:15:08.894Z,54.66
2023-02-18T09:16:18.315Z,54.66
2023-02-18T09:17:20.176Z,54.68
2023-02-18T09:18:23.587Z,54.75
2023-02-18T09:19:25.924Z,54.73
2023-02-18T09:20:28.465Z,54.79
2023-02-18T09:21:30.583Z,54.62
2023-02-18T09:22:32.874Z,54.61
2023-02-18T09:23:35.437Z,54.58
2023-02-18T09:24:39.139Z,54.47
2023-02-18T09:25:41.139Z,54.44
2023-02-18T09:26:42.966Z,54.62
2023-02-18T09:27:44.818Z,54.79
2023-02-18T09:28:46.839Z,54.83
2023-02-18T09:29:49.642Z,54.78
2023-02-18T09:30:52.103Z,54.71
2023-02-18T09:31:54.072Z,54.37
2023-02-18T09:32:55.963Z,54.39
2023-02-18T09:34:02.849Z,54.18
2023-02-18T09:35:05.525Z,53.46
2023-02-18T09:36:08.003Z,53.52
2023-02-18T09:37:09.972Z,53.27
2023-02-18T09:38:13.739Z,53.13
2023-02-18T09:39:18.043Z,53.31
2023-02-18T09:40:32.393Z,53.27
2023-02-18T09:41:46.805Z,53.08
2023-02-18T09:42:48.841Z,53.21
2023-02-18T09:43:55.368Z,53.15
2023-02-18T09:45:01.329Z,53.26
2023-02-18T09:46:05.323Z,53.27
2023-02-18T09:47:25.559Z,53.15
2023-02-18T09:48:36.481Z,52.96
2023-02-18T09:49:41.224Z,52.79
2023-02-18T09:50:48.099Z,52.83
2023-02-18T09:51:50.327Z,52.95
2023-02-18T09:52:52.889Z,52.67
2023-02-18T09:53:54.770Z,52.33
2023-02-18T09:54:56.787Z,52.30
2023-02-18T09:56:00.697Z,52.23
2023-02-18T09:57:03.493Z,51.30
2023-02-18T09:58:11.345Z,51.21
2023-02-18T09:59:21.207Z,51.14
2023-02-18T10:00:52.064Z,50.98
2023-02-18T10:01:54.735Z,50.63
2023-02-18T10:03:03.168Z,50.58
2023-02-18T10:04:15.627Z,50.65
2023-02-18T10:05:17.669Z,50.41
2023-02-18T10:06:25.930Z,50.52
2023-02-18T10:07:30.907Z,50.52
2023-02-18T10:08:44.821Z,50.93
2023-02-18T10:09:48.858Z,51.86
2023-02-18T10:10:51.078Z,52.69
2023-02-18T10:11:56.806Z,53.06
2023-02-18T10:12:58.802Z,53.14
2023-02-18T10:14:02.895Z,52.80
2023-02-18T10:15:10.697Z,53.06
2023-02-18T10:16:18.253Z,52.92
2023-02-18T10:17:22.253Z,52.90
2023-02-18T10:18:41.321Z,52.86
2023-02-18T10:19:44.569Z,52.46
2023-02-18T10:20:47.085Z,52.51
2023-02-18T10:21:50.212Z,52.30
2023-02-18T10:22:54.712Z,52.50
2023-02-18T10:24:06.152Z,52.27
2023-02-18T10:25:08.455Z,52.35
2023-02-18T10:26:17.075Z,52.07
2023-02-18T10:27:25.275Z,51.91
2023-02-18T10:28:27.366Z,51.72
2023-02-18T10:29:32.219Z,50.92
2023-02-18T10:30:40.823Z,49.63
2023-02-18T10:31:46.744Z,49.25
2023-02-18T10:32:51.677Z,50.35
2023-02-18T10:34:00.178Z,50.66
2023-02-18T10:35:01.898Z,50.63
2023-02-18T10:36:24.280Z,50.46
2023-02-18T10:37:44.344Z,50.54
2023-02-18T10:39:04.340Z,50.13
2023-02-18T10:40:09.176Z,49.93
2023-02-18T10:41:28.957Z,49.98
2023-02-18T10:42:42.499Z,49.63
2023-02-18T10:43:56.069Z,49.29
2023-02-18T10:45:21.478Z,49.07
2023-02-18T10:46:28.614Z,49.14
2023-02-18T10:47:45.101Z,49.55
2023-02-18T10:49:08.388Z,50.34
2023-02-18T10:50:13.589Z,50.47
2023-02-18T10:51:36.059Z,50.68
2023-02-18T10:52:47.932Z,50.70
2023-02-18T10:53:52.260Z,50.90
2023-02-18T10:55:04.627Z,50.93
2023-02-18T10:56:07.435Z,50.89
2023-02-18T10:57:18.644Z,51.07
2023-02-18T10:58:24.997Z,51.00
2023-02-18T10:59:32.975Z,51.09
2023-02-18T11:00:36.356Z,51.01
2023-02-18T11:01:38.724Z,51.19
2023-02-18T11:02:42.073Z,51.11
2023-02-18T11:03:49.343Z,51.14
2023-02-18T11:04:51.443Z,50.96
2023-02-18T11:05:56.239Z,51.10
2023-02-18T11:07:05.387Z,51.18
2023-02-18T11:08:14.485Z,51.08
2023-02-18T11:09:32.489Z,51.11
2023-02-18T11:10:39.539Z,51.14
2023-02-18T11:11:41.797Z,51.04
2023-02-18T11:12:55.930Z,50.73
2023-02-18T11:14:01.330Z,50.64
2023-02-18T11:15:09.774Z,50.63
2023-02-18T11:16:12.651Z,50.70
2023-02-18T11:17:30.993Z,50.91
2023-02-18T11:18:45.541Z,50.92
2023-02-18T11:20:01.894Z,50.96
2023-02-18T11:21:10.121Z,51.03
2023-02-18T11:22:28.542Z,50.87
2023-02-18T11:23:32.229Z,51.00
2023-02-18T11:24:38.720Z,50.94
2023-02-18T11:25:42.428Z,51.18
2023-02-18T11:26:44.797Z,51.22
2023-02-18T11:28:11.172Z,51.29
2023-02-18T11:29:21.572Z,51.54
2023-02-18T11:30:24.511Z,51.59
2023-02-18T11:31:42.264Z,51.71
2023-02-18T11:32:44.616Z,51.96
2023-02-18T11:33:55.778Z,52.22
2023-02-18T11:34:58.201Z,52.56
2023-02-18T11:36:06.970Z,52.76
2023-02-18T11:37:12.734Z,52.88
2023-02-18T11:38:29.147Z,52.84
2023-02-18T11:39:32.362Z,52.77
2023-02-18T11:40:36.268Z,52.68
2023-02-18T11:41:41.312Z,52.74
2023-02-18T11:42:43.113Z,52.88
2023-02-18T11:43:50.585Z,52.77
2023-02-18T11:45:00.126Z,52.66
2023-02-18T11:46:25.543Z,52.75
2023-02-18T11:47:37.734Z,52.75
2023-02-18T11:48:39.886Z,52.77
2023-02-18T11:49:43.185Z,52.74
2023-02-18T11:50:45.919Z,52.70
2023-02-18T11:51:48.816Z,52.52
2023-02-18T11:52:51.616Z,52.51
2023-02-18T11:54:04.032Z,52.62
2023-02-18T11:55:17.302Z,52.89
2023-02-18T11:56:20.481Z,52.87
2023-02-18T11:57:26.524Z,52.86
2023-02-18T11:58:41.939Z,53.00
2023-02-18T11:59:44.636Z,52.74
2023-02-18T12:00:48.308Z,52.61
2023-02-18T12:02:10.469Z,52.67
2023-02-18T12:03:26.277Z,52.97
2023-02-18T12:04:34.104Z,52.85
2023-02-18T12:05:37.200Z,53.06
2023-02-18T12:07:05.791Z,53.03
2023-02-18T12:08:19.868Z,53.17
2023-02-18T12:09:52.318Z,53.28
2023-02-18T12:11:01.897Z,53.41
2023-02-18T12:12:11.697Z,53.36
2023-02-18T12:13:31.184Z,53.26
2023-02-18T12:14:33.569Z,53.29
2023-02-18T12:15:53.605Z,53.34
2023-02-18T12:17:12.065Z,53.42
2023-02-18T12:18:22.637Z,53.64
2023-02-18T12:19:43.122Z,53.70
2023-02-18T12:21:02.911Z,53.96
2023-02-18T12:22:16.436Z,53.96
2023-02-18T12:23:47.142Z,53.93
2023-02-18T12:24:57.667Z,53.97
2023-02-18T12:26:15.542Z,54.04
2023-02-18T12:27:30.659Z,54.06
2023-02-18T12:28:46.911Z,54.07
2023-02-18T12:30:27.829Z,54.23
2023-02-18T12:31:55.342Z,54.07
2023-02-18T12:33:03.061Z,54.10
2023-02-18T12:34:41.786Z,54.28
2023-02-18T12:35:57.204Z,54.36
2023-02-18T12:37:20.300Z,54.47
2023-02-18T12:39:04.082Z,54.62
2023-02-18T12:40:27.567Z,54.45
2023-02-18T12:41:35.147Z,54.52
2023-02-18T12:42:51.160Z,54.44
2023-02-18T12:44:11.042Z,54.63
2023-02-18T12:45:45.137Z,54.57
2023-02-18T12:47:20.547Z,54.61
2023-02-18T12:48:57.598Z,54.59
2023-02-18T12:50:03.380Z,54.51
2023-02-18T12:51:19.103Z,54.52
2023-02-18T12:52:58.884Z,54.61
2023-02-18T12:54:11.056Z,54.70
2023-02-18T12:55:27.728Z,54.65
2023-02-18T12:56:44.618Z,54.68
2023-02-18T12:58:10.481Z,54.73
2023-02-18T12:59:37.127Z,54.75
2023-02-18T13:00:57.994Z,54.52
2023-02-18T13:02:24.807Z,54.32
2023-02-18T13:03:47.837Z,54.18
2023-02-18T13:04:59.415Z,54.07
2023-02-18T13:06:52.292Z,53.38
2023-02-18T13:07:57.037Z,53.23
2023-02-18T13:09:17.503Z,53.05
2023-02-18T13:10:49.824Z,52.97
2023-02-18T13:11:59.624Z,52.89
2023-02-18T13:13:11.688Z,52.84
2023-02-18T13:14:20.787Z,52.72
2023-02-18T13:15:34.433Z,52.69
2023-02-18T13:16:39.014Z,52.99
2023-02-18T13:17:43.280Z,52.85
2023-02-18T13:18:54.785Z,52.54
2023-02-18T13:20:01.668Z,52.51
2023-02-18T13:21:09.414Z,52.64
2023-02-18T13:22:12.805Z,52.54
2023-02-18T13:23:21.672Z,52.25
2023-02-18T13:24:27.777Z,52.33
2023-02-18T13:25:36.625Z,52.56
2023-02-18T13:26:40.697Z,52.37
2023-02-18T13:28:23.847Z,52.11
2023-02-18T13:29:41.719Z,52.12
2023-02-18T13:31:01.786Z,52.16
2023-02-18T13:32:19.867Z,51.95
2023-02-18T13:33:39.574Z,51.70
2023-02-18T13:35:17.509Z,51.77
2023-02-18T13:36:31.571Z,51.74
2023-02-18T13:37:42.070Z,51.55
2023-02-18T13:39:10.111Z,51.63
2023-02-18T13:40:21.548Z,51.42
2023-02-18T13:41:26.362Z,51.55
2023-02-18T13:42:37.348Z,51.50
2023-02-18T13:43:39.901Z,51.42
2023-02-18T13:44:56.823Z,51.25
2023-02-18T13:46:08.161Z,51.23
2023-02-18T13:47:10.723Z,51.32
2023-02-18T13:48:27.098Z,51.12
2023-02-18T13:49:34.406Z,50.85
2023-02-18T13:50:43.359Z,50.81
2023-02-18T13:51:48.665Z,50.74
2023-02-18T13:53:07.212Z,50.82
2023-02-18T13:54:17.713Z,50.93
2023-02-18T13:55:28.067Z,50.52
2023-02-18T13:56:33.388Z,50.50
2023-02-18T13:57:37.429Z,50.34
2023-02-18T13:58:49.094Z,50.30
2023-02-18T13:59:58.570Z,50.19
2023-02-18T14:01:07.491Z,50.07
2023-02-18T14:02:25.604Z,50.29
2023-02-18T14:03:30.799Z,50.32
2023-02-18T14:04:44.591Z,50.50
2023-02-18T14:05:46.577Z,50.53
2023-02-18T14:07:25.773Z,50.56
2023-02-18T14:08:34.973Z,50.62
2023-02-18T14:09:42.251Z,50.44
2023-02-18T14:11:12.762Z,50.49
2023-02-18T14:12:52.050Z,50.43
2023-02-18T14:14:26.254Z,49.97
2023-02-18T14:15:28.065Z,49.84
2023-02-18T14:17:08.120Z,49.62
2023-02-18T14:18:20.995Z,49.58
2023-02-18T14:19:28.722Z,49.38
2023-02-18T14:20:31.230Z,49.38